In Rescue
 
Open Full Screen Window  High Contrast Mode
June 22, 2024 9:10 PM CDT
Present Weather: Haze
Weather Information
Wind Direction
  ---
Wind Speed
  00 kt (0 mph)
Wind Gust
  00 kt (0 mph)
Altimeter
29.82 in
Visibility
4 SM
Temperature
22° C
72° F
Dewpoint
13° C
55° F
Humidity
57%
Sky Condition
Overcast @ 11,000 ft
MVFR

METAR KFGN 230210Z AUTO 00000KT 4SM HZ OVC110 22/13 A2982 RMK AO2

FAA Disclaimer: The data displayed is for advisory purposes only and is not to be used for flight planning or operations.